createdAt,value
2023-02-02T00:01:55.045Z,4.37
2023-02-02T00:03:57.840Z,4.13
2023-02-02T00:06:00.276Z,4.57
2023-02-02T00:08:02.719Z,5.30
2023-02-02T00:10:05.423Z,5.67
2023-02-02T00:12:07.627Z,5.30
2023-02-02T00:14:13.537Z,5.17
2023-02-02T00:16:46.279Z,6.00
2023-02-02T00:18:49.339Z,6.13
2023-02-02T00:20:51.578Z,5.40
2023-02-02T00:22:53.968Z,6.20
2023-02-02T00:24:56.066Z,5.80
2023-02-02T00:27:00.015Z,6.17
2023-02-02T00:29:02.621Z,5.63
2023-02-02T00:31:05.179Z,5.67
2023-02-02T00:33:07.389Z,7.32
2023-02-02T00:35:10.518Z,6.20
2023-02-02T00:37:12.761Z,7.30
2023-02-02T00:39:18.747Z,5.90
2023-02-02T00:41:21.164Z,6.10
2023-02-02T00:43:23.684Z,8.07
2023-02-02T00:45:26.765Z,7.00
2023-02-02T00:47:29.381Z,6.53
2023-02-02T00:49:31.633Z,6.90
2023-02-02T00:51:34.168Z,6.05
2023-02-02T00:53:36.312Z,6.30
2023-02-02T00:55:39.001Z,7.47
2023-02-02T00:57:41.425Z,6.10
2023-02-02T00:59:44.214Z,7.53
2023-02-02T01:01:46.501Z,7.20
2023-02-02T01:03:50.392Z,6.37
2023-02-02T01:05:52.474Z,6.30
2023-02-02T01:07:54.869Z,7.03
2023-02-02T01:09:57.052Z,6.70
2023-02-02T01:11:59.480Z,6.03
2023-02-02T01:14:01.697Z,6.77
2023-02-02T01:16:05.407Z,6.27
2023-02-02T01:18:07.547Z,7.47
2023-02-02T01:20:16.953Z,6.57
2023-02-02T01:22:19.065Z,5.43
2023-02-02T01:24:21.495Z,6.17
2023-02-02T01:26:23.624Z,5.53
2023-02-02T01:28:27.365Z,5.90
2023-02-02T01:30:29.596Z,7.17
2023-02-02T01:32:32.118Z,5.47
2023-02-02T01:34:34.305Z,5.70
2023-02-02T01:36:36.711Z,5.63
2023-02-02T01:38:38.990Z,6.63
2023-02-02T01:40:52.357Z,6.20
2023-02-02T01:42:54.456Z,5.60
2023-02-02T01:45:19.502Z,5.95
2023-02-02T01:47:25.935Z,4.77
2023-02-02T01:49:27.950Z,6.03
2023-02-02T01:51:44.778Z,4.90
2023-02-02T01:53:49.658Z,5.97
2023-02-02T01:55:52.758Z,6.13
2023-02-02T01:58:04.272Z,6.70
2023-02-02T02:00:10.442Z,5.77
2023-02-02T02:02:13.207Z,6.90
2023-02-02T02:04:16.090Z,6.23
2023-02-02T02:06:19.828Z,5.57
2023-02-02T02:08:27.038Z,6.20
2023-02-02T02:10:29.189Z,6.50
2023-02-02T02:12:31.635Z,6.47
2023-02-02T02:14:52.158Z,5.70
2023-02-02T02:17:16.102Z,5.70
2023-02-02T02:19:30.398Z,5.93
2023-02-02T02:22:07.681Z,6.00
2023-02-02T02:25:06.158Z,7.00
2023-02-02T02:27:34.603Z,6.70
2023-02-02T02:30:07.832Z,5.90
2023-02-02T02:32:41.706Z,5.73
2023-02-02T02:35:05.392Z,5.23
2023-02-02T02:37:15.291Z,5.83
2023-02-02T02:39:35.123Z,5.97
2023-02-02T02:43:58.939Z,5.17
2023-02-02T02:46:02.697Z,4.80
2023-02-02T02:48:04.932Z,6.00
2023-02-02T02:50:07.801Z,5.03
2023-02-02T02:52:09.934Z,5.17
2023-02-02T02:54:25.161Z,4.47
2023-02-02T02:56:36.940Z,5.00
2023-02-02T02:58:42.043Z,4.70
2023-02-02T03:00:57.595Z,4.37
2023-02-02T03:03:32.227Z,5.57
2023-02-02T03:06:00.526Z,5.37
2023-02-02T03:08:12.189Z,4.57
2023-02-02T03:10:18.529Z,4.03
2023-02-02T03:12:20.997Z,4.83
2023-02-02T03:14:23.131Z,4.63
2023-02-02T03:16:25.640Z,4.47
2023-02-02T03:18:30.571Z,4.27
2023-02-02T03:20:32.992Z,4.50
2023-02-02T03:22:35.094Z,5.13
2023-02-02T03:24:37.552Z,4.77
2023-02-02T03:26:39.827Z,4.87
2023-02-02T03:28:42.482Z,4.27
2023-02-02T03:30:46.383Z,4.47
2023-02-02T03:32:50.350Z,3.97
2023-02-02T03:34:52.511Z,4.30
2023-02-02T03:36:54.854Z,4.03
2023-02-02T03:38:56.972Z,4.18
2023-02-02T03:40:59.425Z,4.87
2023-02-02T03:43:01.537Z,4.50
2023-02-02T03:45:04.700Z,4.40
2023-02-02T03:47:06.821Z,3.93
2023-02-02T03:49:09.204Z,3.97
2023-02-02T03:51:15.363Z,4.10
2023-02-02T03:53:17.949Z,4.00
2023-02-02T03:55:20.020Z,4.50
2023-02-02T03:57:22.411Z,3.70
2023-02-02T03:59:24.655Z,3.30
2023-02-02T04:01:29.393Z,3.83
2023-02-02T04:03:31.585Z,3.73
2023-02-02T04:05:34.182Z,3.27
2023-02-02T04:07:36.262Z,4.03
2023-02-02T04:09:38.892Z,4.60
2023-02-02T04:11:41.072Z,3.63
2023-02-02T04:13:43.580Z,3.55
2023-02-02T04:15:45.838Z,4.33
2023-02-02T04:17:48.226Z,3.97
2023-02-02T04:19:53.241Z,3.90
2023-02-02T04:21:55.635Z,5.63
2023-02-02T04:23:57.781Z,3.27
2023-02-02T04:26:00.629Z,4.65
2023-02-02T04:28:02.818Z,4.00
2023-02-02T04:30:06.067Z,4.57
2023-02-02T04:32:08.375Z,3.63
2023-02-02T04:34:10.822Z,4.07
2023-02-02T04:36:13.124Z,3.97
2023-02-02T04:38:15.863Z,4.00
2023-02-02T04:40:18.182Z,4.43
2023-02-02T04:42:20.603Z,3.53
2023-02-02T04:44:22.719Z,3.63
2023-02-02T04:46:26.635Z,3.30
2023-02-02T04:48:28.744Z,3.83
2023-02-02T04:50:31.488Z,4.30
2023-02-02T04:52:33.774Z,2.80
2023-02-02T04:54:36.175Z,3.53
2023-02-02T04:56:38.309Z,3.20
2023-02-02T04:58:42.129Z,3.87
2023-02-02T05:00:44.242Z,3.43
2023-02-02T05:02:46.697Z,2.80
2023-02-02T05:04:48.834Z,3.67
2023-02-02T05:06:51.274Z,3.47
2023-02-02T05:08:53.396Z,2.97
2023-02-02T05:10:55.862Z,3.27
2023-02-02T05:12:57.975Z,3.00
2023-02-02T05:15:01.222Z,3.63
2023-02-02T05:17:03.356Z,4.10
2023-02-02T05:19:05.897Z,3.43
2023-02-02T05:21:08.129Z,3.97
2023-02-02T05:23:10.516Z,4.27
2023-02-02T05:25:12.673Z,3.73
2023-02-02T05:27:15.097Z,3.80
2023-02-02T05:29:17.179Z,3.53
2023-02-02T05:31:20.728Z,3.97
2023-02-02T05:33:22.916Z,4.30
2023-02-02T05:35:25.626Z,4.40
2023-02-02T05:37:27.968Z,4.40
2023-02-02T05:39:30.434Z,4.03
2023-02-02T05:41:32.818Z,4.30
2023-02-02T05:43:35.692Z,5.77
2023-02-02T05:45:37.883Z,3.77
2023-02-02T05:47:40.287Z,5.00
2023-02-02T05:49:42.430Z,4.03
2023-02-02T05:51:50.359Z,5.43
2023-02-02T05:53:52.551Z,4.00
2023-02-02T05:55:54.961Z,3.78
2023-02-02T05:57:57.063Z,4.93
2023-02-02T05:59:59.445Z,4.10
2023-02-02T06:02:01.574Z,4.53
2023-02-02T06:04:04.137Z,4.10
2023-02-02T06:06:07.153Z,4.03
2023-02-02T06:08:09.727Z,4.17
2023-02-02T06:10:11.892Z,4.25
2023-02-02T06:12:14.345Z,3.60
2023-02-02T06:14:16.435Z,4.00
2023-02-02T06:16:18.988Z,4.53
2023-02-02T06:18:21.339Z,3.70
2023-02-02T06:20:23.887Z,4.20
2023-02-02T06:22:26.040Z,4.87
2023-02-02T06:24:30.756Z,3.63
2023-02-02T06:26:32.951Z,4.17
2023-02-02T06:28:35.427Z,4.00
2023-02-02T06:30:37.601Z,3.60
2023-02-02T06:32:40.189Z,3.90
2023-02-02T06:34:42.382Z,3.95
2023-02-02T06:36:44.788Z,4.67
2023-02-02T06:38:51.934Z,4.43
2023-02-02T06:40:54.467Z,4.60
2023-02-02T06:43:01.198Z,3.60
2023-02-02T06:45:04.868Z,3.73
2023-02-02T06:47:06.986Z,3.50
2023-02-02T06:49:09.363Z,3.77
2023-02-02T06:51:11.624Z,3.97
2023-02-02T06:53:14.155Z,4.70
2023-02-02T06:55:16.518Z,3.60
2023-02-02T06:57:18.983Z,3.95
2023-02-02T06:59:21.056Z,4.90
2023-02-02T07:01:23.612Z,3.83
2023-02-02T07:03:25.766Z,4.05
2023-02-02T07:05:30.578Z,3.73
2023-02-02T07:07:34.377Z,4.45
2023-02-02T07:09:36.799Z,3.97
2023-02-02T07:11:39.530Z,4.07
2023-02-02T07:13:49.228Z,3.30
2023-02-02T07:15:51.425Z,3.92
2023-02-02T07:17:55.290Z,2.93
2023-02-02T07:19:57.411Z,4.10
2023-02-02T07:21:59.809Z,4.10
2023-02-02T07:24:06.437Z,4.13
2023-02-02T07:26:10.807Z,4.03
2023-02-02T07:28:12.951Z,3.70
2023-02-02T07:30:16.171Z,3.63
2023-02-02T07:32:18.363Z,3.27
2023-02-02T07:34:20.805Z,4.28
2023-02-02T07:36:24.532Z,3.15
2023-02-02T07:38:27.169Z,2.60
2023-02-02T07:40:29.345Z,4.20
2023-02-02T07:42:31.917Z,3.08
2023-02-02T07:44:34.116Z,3.42
2023-02-02T07:46:36.639Z,3.50
2023-02-02T07:48:40.993Z,3.65
2023-02-02T07:50:43.383Z,2.75
2023-02-02T07:52:45.571Z,2.63
2023-02-02T07:54:47.996Z,3.08
2023-02-02T07:56:50.382Z,2.13
2023-02-02T07:58:54.624Z,2.05
2023-02-02T08:01:01.315Z,2.15
2023-02-02T08:03:03.918Z,1.85
2023-02-02T08:05:07.568Z,2.53
2023-02-02T08:07:09.977Z,2.08
2023-02-02T08:09:12.133Z,2.55
2023-02-02T08:11:17.039Z,2.92
2023-02-02T08:13:19.333Z,2.22
2023-02-02T08:15:21.822Z,2.17
2023-02-02T08:17:23.970Z,2.10
2023-02-02T08:19:26.455Z,2.40
2023-02-02T08:21:28.641Z,2.38
2023-02-02T08:23:31.496Z,1.88
2023-02-02T08:25:33.665Z,2.30
2023-02-02T08:27:37.870Z,1.77
2023-02-02T08:29:40.107Z,2.53
2023-02-02T08:31:43.404Z,2.30
2023-02-02T08:33:45.851Z,2.15
2023-02-02T08:35:48.267Z,2.10
2023-02-02T08:37:50.521Z,2.22
2023-02-02T08:39:52.967Z,2.03
2023-02-02T08:41:56.628Z,1.77
2023-02-02T08:43:59.261Z,1.90
2023-02-02T08:46:05.220Z,2.38
2023-02-02T08:48:11.969Z,1.80
2023-02-02T08:50:14.400Z,1.73
2023-02-02T08:52:16.901Z,2.95
2023-02-02T08:54:19.051Z,3.08
2023-02-02T08:56:22.902Z,3.30
2023-02-02T08:58:25.165Z,3.10
2023-02-02T09:00:27.687Z,5.00
2023-02-02T09:02:29.877Z,3.25
2023-02-02T09:04:32.373Z,3.80
2023-02-02T09:06:37.542Z,3.25
2023-02-02T09:08:40.401Z,3.17
2023-02-02T09:10:42.611Z,2.97
2023-02-02T09:12:44.998Z,3.80
2023-02-02T09:14:47.136Z,3.35
2023-02-02T09:16:49.631Z,2.70
2023-02-02T09:18:51.880Z,3.38
2023-02-02T09:20:54.338Z,3.08
2023-02-02T09:22:57.323Z,3.15
2023-02-02T09:24:59.738Z,3.38
2023-02-02T09:27:01.952Z,3.87
2023-02-02T09:29:07.290Z,3.33
2023-02-02T09:31:10.380Z,2.90
2023-02-02T09:33:12.848Z,2.72
2023-02-02T09:35:15.038Z,2.97
2023-02-02T09:37:17.509Z,3.53
2023-02-02T09:39:20.604Z,2.50
2023-02-02T09:41:38.107Z,2.53
2023-02-02T09:44:08.710Z,2.88
2023-02-02T09:46:20.288Z,3.17
2023-02-02T09:48:25.635Z,2.40
2023-02-02T09:51:03.771Z,3.00
2023-02-02T09:53:36.612Z,2.27
2023-02-02T09:55:49.960Z,2.60
2023-02-02T09:58:33.974Z,2.97
2023-02-02T10:00:48.068Z,2.80
2023-02-02T10:02:57.226Z,2.97
2023-02-02T10:05:12.267Z,2.78
2023-02-02T10:07:19.116Z,2.93
2023-02-02T10:09:56.166Z,2.30
2023-02-02T10:12:26.102Z,2.80
2023-02-02T10:14:36.735Z,2.65
2023-02-02T10:16:40.811Z,2.23
2023-02-02T10:18:43.114Z,2.93
2023-02-02T10:20:56.241Z,2.17
2023-02-02T10:23:06.600Z,1.80
2023-02-02T10:25:14.714Z,2.90
2023-02-02T10:27:25.016Z,2.00
2023-02-02T10:29:48.876Z,2.17
2023-02-02T10:32:24.107Z,2.40
2023-02-02T10:34:43.066Z,2.40
2023-02-02T10:36:58.159Z,2.43
2023-02-02T10:39:40.221Z,2.13
2023-02-02T10:42:18.694Z,3.37
2023-02-02T10:44:47.206Z,2.60
2023-02-02T10:46:58.220Z,3.25
2023-02-02T10:49:24.465Z,2.50
2023-02-02T10:51:28.409Z,2.50
2023-02-02T10:53:33.250Z,2.92
2023-02-02T10:55:41.441Z,1.90
2023-02-02T10:58:00.872Z,2.27
2023-02-02T11:00:23.901Z,3.27
2023-02-02T11:02:26.415Z,2.00
2023-02-02T11:04:48.063Z,3.00
2023-02-02T11:06:50.613Z,3.07
2023-02-02T11:08:58.323Z,2.83
2023-02-02T11:11:17.307Z,3.00
2023-02-02T11:13:36.863Z,3.30
2023-02-02T11:15:39.275Z,2.90
2023-02-02T11:17:41.538Z,2.70
2023-02-02T11:19:44.035Z,2.60
2023-02-02T11:21:48.753Z,2.50
2023-02-02T11:24:05.278Z,2.73
2023-02-02T11:26:07.884Z,2.60
2023-02-02T11:28:19.072Z,2.40
2023-02-02T11:30:30.052Z,2.70
2023-02-02T11:32:33.379Z,2.75
2023-02-02T11:34:35.855Z,2.72
2023-02-02T11:36:37.996Z,2.50
2023-02-02T11:38:40.421Z,2.30
2023-02-02T11:40:45.436Z,2.92
2023-02-02T11:42:48.480Z,3.40
2023-02-02T11:44:53.800Z,3.33
2023-02-02T11:46:57.498Z,3.50
2023-02-02T11:49:08.489Z,3.17
2023-02-02T11:51:23.927Z,2.65
2023-02-02T11:53:35.757Z,3.20
2023-02-02T11:55:38.268Z,2.95
2023-02-02T11:57:40.430Z,3.05
2023-02-02T11:59:44.840Z,2.72
2023-02-02T12:01:46.983Z,2.92
2023-02-02T12:03:50.402Z,3.83
2023-02-02T12:05:52.811Z,2.60
2023-02-02T12:07:55.243Z,2.85
2023-02-02T12:10:02.553Z,2.67
2023-02-02T12:12:29.161Z,2.65
2023-02-02T12:14:40.047Z,2.38
2023-02-02T12:16:45.188Z,2.95
2023-02-02T12:18:57.721Z,2.55
2023-02-02T12:21:10.525Z,3.53
2023-02-02T12:23:27.792Z,2.63
2023-02-02T12:25:48.285Z,2.10
2023-02-02T12:28:15.324Z,3.28
2023-02-02T12:30:53.309Z,2.67
2023-02-02T12:33:24.703Z,2.03
2023-02-02T12:35:35.200Z,2.00
2023-02-02T12:38:15.660Z,2.00
2023-02-02T12:40:18.003Z,2.00
2023-02-02T12:42:49.580Z,2.10
2023-02-02T12:45:26.207Z,1.90
2023-02-02T12:47:40.838Z,2.33
2023-02-02T12:50:02.851Z,2.88
2023-02-02T12:52:13.912Z,2.25
2023-02-02T12:54:34.518Z,1.92
2023-02-02T12:56:58.383Z,2.22
2023-02-02T12:59:19.134Z,2.47
2023-02-02T13:01:33.034Z,2.20
2023-02-02T13:03:56.645Z,2.45
2023-02-02T13:08:35.623Z,2.33
2023-02-02T13:10:42.142Z,2.22
2023-02-02T13:13:18.800Z,2.80
2023-02-02T13:15:24.340Z,2.75
2023-02-02T13:17:34.197Z,2.67
2023-02-02T13:19:41.656Z,2.70
2023-02-02T13:21:44.967Z,2.35
2023-02-02T13:23:52.235Z,2.85
2023-02-02T13:26:10.171Z,3.08
2023-02-02T13:28:21.401Z,3.08
2023-02-02T13:30:40.115Z,3.88
2023-02-02T13:32:45.832Z,4.05
2023-02-02T13:34:55.255Z,3.72
2023-02-02T13:37:02.827Z,4.45
2023-02-02T13:39:18.631Z,4.72
2023-02-02T13:41:21.187Z,4.43
2023-02-02T13:43:58.573Z,4.45
2023-02-02T13:46:35.559Z,5.57
2023-02-02T13:49:02.276Z,4.30
2023-02-02T13:51:42.227Z,4.17
2023-02-02T13:54:15.577Z,5.20
2023-02-02T13:56:40.625Z,5.40
2023-02-02T13:58:55.663Z,4.30
2023-02-02T14:01:06.083Z,4.07
2023-02-02T14:03:42.027Z,3.87
2023-02-02T14:05:44.160Z,4.43
2023-02-02T14:07:47.744Z,4.30
2023-02-02T14:09:49.996Z,3.30
2023-02-02T14:12:01.292Z,4.40
2023-02-02T14:14:32.577Z,3.90
2023-02-02T14:16:38.204Z,3.30
2023-02-02T14:18:50.175Z,3.43
2023-02-02T14:20:52.679Z,3.80
2023-02-02T14:22:54.899Z,3.25
2023-02-02T14:24:57.418Z,3.20
2023-02-02T14:27:01.568Z,3.93
2023-02-02T14:29:04.161Z,3.67
2023-02-02T14:31:29.642Z,4.38
2023-02-02T14:33:40.188Z,3.50
2023-02-02T14:38:15.153Z,3.78
2023-02-02T14:40:32.336Z,3.83
2023-02-02T14:43:14.893Z,4.17
2023-02-02T14:45:26.749Z,4.60
2023-02-02T14:47:47.030Z,4.13
2023-02-02T14:49:50.275Z,4.22
2023-02-02T14:51:56.046Z,4.47
2023-02-02T14:54:08.697Z,3.43
2023-02-02T14:56:14.241Z,4.68
2023-02-02T14:58:39.019Z,4.82
2023-02-02T15:00:41.517Z,4.27
2023-02-02T15:02:43.736Z,5.17
2023-02-02T15:04:49.808Z,4.20
2023-02-02T15:06:56.030Z,4.33
2023-02-02T15:09:20.137Z,5.13
2023-02-02T15:11:28.471Z,5.33
2023-02-02T15:13:37.789Z,5.03
2023-02-02T15:15:43.715Z,5.60
2023-02-02T15:18:00.889Z,5.00
2023-02-02T15:20:11.957Z,4.53
2023-02-02T15:22:39.066Z,4.50
2023-02-02T15:24:45.362Z,4.55
2023-02-02T15:26:48.806Z,5.80
2023-02-02T15:29:01.440Z,5.60
2023-02-02T15:31:37.565Z,4.93
2023-02-02T15:33:44.115Z,5.07
2023-02-02T15:35:48.470Z,6.10
2023-02-02T15:38:02.806Z,4.90
2023-02-02T15:40:27.101Z,5.50
2023-02-02T15:42:53.704Z,5.27
2023-02-02T15:44:57.951Z,5.30
2023-02-02T15:47:01.051Z,5.10
2023-02-02T15:49:32.875Z,4.60
2023-02-02T15:51:35.709Z,5.30
2023-02-02T15:53:43.908Z,6.00
2023-02-02T15:55:46.138Z,4.80
2023-02-02T15:57:48.724Z,5.33
2023-02-02T15:59:51.235Z,5.50
2023-02-02T16:02:31.906Z,5.53
2023-02-02T16:04:37.476Z,5.77
2023-02-02T16:06:40.824Z,6.17
2023-02-02T16:08:43.437Z,5.90
2023-02-02T16:10:49.082Z,5.53
2023-02-02T16:12:52.020Z,6.37
2023-02-02T16:14:55.525Z,6.37
2023-02-02T16:17:30.516Z,6.37
2023-02-02T16:19:33.041Z,5.67
2023-02-02T16:21:46.910Z,6.23
2023-02-02T16:23:50.052Z,4.50
2023-02-02T16:25:56.032Z,4.47
2023-02-02T16:28:01.005Z,4.30
2023-02-02T16:30:09.415Z,3.83
2023-02-02T16:32:26.816Z,4.50
2023-02-02T16:34:41.183Z,4.40
2023-02-02T16:36:43.779Z,4.10
2023-02-02T16:38:46.029Z,4.80
2023-02-02T16:40:48.737Z,4.80
2023-02-02T16:43:07.433Z,4.20
2023-02-02T16:45:35.303Z,4.60
2023-02-02T16:47:39.097Z,4.47
2023-02-02T16:49:41.865Z,4.50
2023-02-02T16:51:45.515Z,3.67
2023-02-02T16:54:02.026Z,3.80
2023-02-02T16:56:05.626Z,3.47
2023-02-02T16:58:18.063Z,3.67
2023-02-02T17:00:23.410Z,3.33
2023-02-02T17:02:30.860Z,3.20
2023-02-02T17:04:34.462Z,3.50
2023-02-02T17:06:50.454Z,3.33
2023-02-02T17:08:54.300Z,3.87
2023-02-02T17:11:21.010Z,3.67
2023-02-02T17:13:36.138Z,3.63
2023-02-02T17:15:38.607Z,4.40
2023-02-02T17:17:40.789Z,4.50
2023-02-02T17:19:43.449Z,4.60
2023-02-02T17:21:49.446Z,4.10
2023-02-02T17:23:54.344Z,3.80
2023-02-02T17:25:56.667Z,4.47
2023-02-02T17:28:00.375Z,4.10
2023-02-02T17:30:04.143Z,4.27
2023-02-02T17:32:06.902Z,4.53
2023-02-02T17:34:16.036Z,4.20
2023-02-02T17:36:18.416Z,4.00
2023-02-02T17:38:21.722Z,4.93
2023-02-02T17:40:24.467Z,4.50
2023-02-02T17:42:28.502Z,4.87
2023-02-02T17:44:31.128Z,4.90
2023-02-02T17:46:33.622Z,4.80
2023-02-02T17:48:37.248Z,5.57
2023-02-02T17:50:40.588Z,5.30
2023-02-02T17:52:43.234Z,6.33
2023-02-02T17:54:45.417Z,5.20
2023-02-02T17:56:47.862Z,5.97
2023-02-02T17:58:49.947Z,5.57
2023-02-02T18:00:55.182Z,4.70
2023-02-02T18:03:16.590Z,4.60
2023-02-02T18:05:19.167Z,4.97
2023-02-02T18:07:21.257Z,4.53
2023-02-02T18:09:23.653Z,4.10
2023-02-02T18:11:25.746Z,3.90
2023-02-02T18:13:28.343Z,3.50
2023-02-02T18:15:30.769Z,2.80
2023-02-02T18:17:34.143Z,2.47
2023-02-02T18:19:36.422Z,2.30
2023-02-02T18:21:38.962Z,3.03
2023-02-02T18:23:41.207Z,2.67
2023-02-02T18:25:43.879Z,3.27
2023-02-02T18:27:46.906Z,2.97
2023-02-02T18:29:49.288Z,3.03
2023-02-02T18:31:51.585Z,2.53
2023-02-02T18:33:54.526Z,3.20
2023-02-02T18:35:56.650Z,3.30
2023-02-02T18:37:59.157Z,2.70
2023-02-02T18:40:01.465Z,2.80
2023-02-02T18:42:04.015Z,2.73
2023-02-02T18:44:06.195Z,3.40
2023-02-02T18:46:13.574Z,2.47
2023-02-02T18:48:17.643Z,2.20
2023-02-02T18:50:22.072Z,2.53
2023-02-02T18:52:24.350Z,2.20
2023-02-02T18:54:26.930Z,2.07
2023-02-02T18:56:30.228Z,2.37
2023-02-02T18:58:34.111Z,2.80
2023-02-02T19:00:36.394Z,2.10
2023-02-02T19:02:39.090Z,2.43
2023-02-02T19:05:01.544Z,3.20
2023-02-02T19:07:22.642Z,2.73
2023-02-02T19:09:24.936Z,2.90
2023-02-02T19:11:34.479Z,3.17
2023-02-02T19:13:36.555Z,3.03
2023-02-02T19:15:40.927Z,3.23
2023-02-02T19:17:46.033Z,3.00
2023-02-02T19:19:49.901Z,3.23
2023-02-02T19:22:06.931Z,3.00
2023-02-02T19:24:13.280Z,3.90
2023-02-02T19:26:25.313Z,3.20
2023-02-02T19:28:30.776Z,3.80
2023-02-02T19:30:33.228Z,4.20
2023-02-02T19:32:43.534Z,3.90
2023-02-02T19:36:51.212Z,3.00
2023-02-02T19:39:00.544Z,3.50
2023-02-02T19:41:03.127Z,3.63
2023-02-02T19:43:14.021Z,3.47
2023-02-02T19:45:22.401Z,3.97
2023-02-02T19:47:32.178Z,4.03
2023-02-02T19:51:43.161Z,4.20
2023-02-02T19:53:45.886Z,3.70
2023-02-02T19:55:48.607Z,4.13
2023-02-02T19:57:52.781Z,4.30
2023-02-02T19:59:55.181Z,3.47
2023-02-02T20:02:01.608Z,4.33
2023-02-02T20:04:06.725Z,3.73
2023-02-02T20:06:16.263Z,4.40
2023-02-02T20:08:30.096Z,4.45
2023-02-02T20:10:42.644Z,4.53
2023-02-02T20:12:45.133Z,3.97
2023-02-02T20:14:48.691Z,4.13
2023-02-02T20:16:52.056Z,3.47
2023-02-02T20:18:56.867Z,3.67
2023-02-02T20:20:59.003Z,3.87
2023-02-02T20:23:02.296Z,3.70
2023-02-02T20:25:09.206Z,4.20
2023-02-02T20:27:19.914Z,4.20
2023-02-02T20:29:25.873Z,3.90
2023-02-02T20:31:36.599Z,3.90
2023-02-02T20:33:45.781Z,3.97
2023-02-02T20:35:48.200Z,4.63
2023-02-02T20:37:51.247Z,4.00
2023-02-02T20:40:02.534Z,4.07
2023-02-02T20:42:05.046Z,3.70
2023-02-02T20:44:07.540Z,4.37
2023-02-02T20:46:09.729Z,5.30
2023-02-02T20:48:15.479Z,3.83
2023-02-02T20:50:20.268Z,3.83
2023-02-02T20:52:23.964Z,3.30
2023-02-02T20:54:26.454Z,3.17
2023-02-02T20:56:29.000Z,2.70
2023-02-02T20:58:31.875Z,3.40
2023-02-02T21:00:34.331Z,2.67
2023-02-02T21:02:36.526Z,3.30
2023-02-02T21:04:39.189Z,3.03
2023-02-02T21:06:41.410Z,2.70
2023-02-02T21:08:45.507Z,3.03
2023-02-02T21:10:47.759Z,2.67
2023-02-02T21:12:51.949Z,2.77
2023-02-02T21:14:54.576Z,3.20
2023-02-02T21:17:09.024Z,3.10
2023-02-02T21:19:16.416Z,3.38
2023-02-02T21:21:21.151Z,3.93
2023-02-02T21:23:23.322Z,3.30
2023-02-02T21:25:25.816Z,3.33
2023-02-02T21:27:27.955Z,3.30
2023-02-02T21:29:31.828Z,3.40
2023-02-02T21:31:35.837Z,3.13
2023-02-02T21:33:38.466Z,3.37
2023-02-02T21:35:40.547Z,2.77
2023-02-02T21:37:44.291Z,3.30
2023-02-02T21:39:51.272Z,3.73
2023-02-02T21:42:16.131Z,3.10
2023-02-02T21:44:20.646Z,2.80
2023-02-02T21:46:37.185Z,2.90
2023-02-02T21:48:40.869Z,2.97
2023-02-02T21:50:43.447Z,3.40
2023-02-02T21:52:46.915Z,3.97
2023-02-02T21:54:49.794Z,2.50
2023-02-02T21:56:52.877Z,3.27
2023-02-02T21:58:59.443Z,3.07
2023-02-02T22:01:17.073Z,3.57
2023-02-02T22:03:34.042Z,2.57
2023-02-02T22:05:37.260Z,2.90
2023-02-02T22:07:41.505Z,2.40
2023-02-02T22:09:45.479Z,2.40
2023-02-02T22:11:50.761Z,2.67
2023-02-02T22:13:53.652Z,2.83
2023-02-02T22:15:56.271Z,2.73
2023-02-02T22:17:58.477Z,2.93
2023-02-02T22:20:07.658Z,2.43
2023-02-02T22:22:15.357Z,2.10
2023-02-02T22:24:18.037Z,2.63
2023-02-02T22:26:33.686Z,2.97
2023-02-02T22:28:39.881Z,2.10
2023-02-02T22:30:43.650Z,2.13
2023-02-02T22:32:46.085Z,2.13
2023-02-02T22:34:48.219Z,2.13
2023-02-02T22:36:50.672Z,1.87
2023-02-02T22:38:52.792Z,1.57
2023-02-02T22:40:55.300Z,1.63
2023-02-02T22:43:00.057Z,1.50
2023-02-02T22:45:02.737Z,1.80
2023-02-02T22:47:05.014Z,1.77
2023-02-02T22:49:07.456Z,1.73
2023-02-02T22:51:10.346Z,1.60
2023-02-02T22:53:14.254Z,1.50
2023-02-02T22:55:16.850Z,1.67
2023-02-02T22:57:19.216Z,2.10
2023-02-02T22:59:21.303Z,1.30
2023-02-02T23:01:24.472Z,1.40
2023-02-02T23:03:26.661Z,1.37
2023-02-02T23:05:29.936Z,2.33
2023-02-02T23:07:32.113Z,1.67
2023-02-02T23:09:34.600Z,1.77
2023-02-02T23:11:36.704Z,1.50
2023-02-02T23:13:39.274Z,1.40
2023-02-02T23:15:41.498Z,1.30
2023-02-02T23:17:44.507Z,1.60
2023-02-02T23:19:46.667Z,1.87
2023-02-02T23:21:49.018Z,2.17
2023-02-02T23:23:51.133Z,1.97
2023-02-02T23:25:53.574Z,2.10
2023-02-02T23:27:55.721Z,1.93
2023-02-02T23:29:58.176Z,1.83
2023-02-02T23:32:00.386Z,1.60
2023-02-02T23:34:02.820Z,1.63
2023-02-02T23:36:05.224Z,1.93
2023-02-02T23:38:07.644Z,1.60
2023-02-02T23:40:10.535Z,1.53
2023-02-02T23:42:13.095Z,1.90
2023-02-02T23:44:15.315Z,2.23
2023-02-02T23:46:18.368Z,1.97
2023-02-02T23:48:21.281Z,1.80
2023-02-02T23:50:24.017Z,1.53
2023-02-02T23:52:26.496Z,1.80
2023-02-02T23:54:29.934Z,1.97
2023-02-02T23:56:32.126Z,2.03
2023-02-02T23:58:34.511Z,2.00
